Estación meteorológica de St. Llorenç del Munt i l'Obac (Bages, P.N.de Sant Llorenç del Munt i l'Obac)

Consulta los datos en tiempo real de la estación meteorológica de St. Llorenç del Munt i l'Obac





Hora UTC 02:30
Temperatura 17.2 ºC
Humedad 94.2 %
Presión 1024.4 hPa
Pluja 0.0 mm
Velocidad viento 2.7 km/h
Dirección viento SSW
Radiación solar 0.1 W/m²

Datos diarios 2026-09-01



Hora UTC (invierno +1h; verano +2h)
Temperatura (ºC) Humedad (%) Presión (hPa) Velocidad viento (km/h) Precipitación (mm) Radiación solar (W/m²)
Hora UTC Aire Humedad Presión Vel. Dir. Vel. Max Dir. Intent. máx 5 min. Rad. Sol.
00:05 18.5 94.0 1024.9 6.6 S 6.6 S 0.0 0.1
00:10 18.4 93.9 1024.9 5.7 S 8.5 S 0.0 0.1
00:15 18.4 93.9 1024.8 6.1 SSE 9.5 SSE 0.0 0.1
00:20 18.4 94.0 1024.8 5.4 S 8.1 S 0.0 0.1
00:25 18.4 93.9 1024.8 5.9 S 8.5 S 0.0 0.1
00:30 18.4 94.0 1024.8 6.3 S 9.2 SSW 0.0 0.1
00:35 18.5 94.1 1024.9 7.3 SSW 9.5 SSW 0.0 0.1
00:40 18.5 94.2 1024.9 8.3 SSW 11.3 S 0.0 0.1
00:45 18.4 94.2 1024.9 6.8 SSW 10.9 SSW 0.0 0.1
00:50 18.4 94.2 1024.9 8.9 S 13.8 S 0.0 0.1
00:55 18.3 94.2 1024.9 8.4 S 12.7 S 0.0 0.1
01:00 18.2 94.3 1024.8 9.7 SSW 14.1 SSW 0.0 0.1
01:05 18.2 94.4 1024.8 10.4 SSW 15.2 SSW 0.0 0.1
01:10 18.1 94.5 1024.7 8.3 S 13.8 SSE 0.0 0.1
01:15 18.0 94.4 1024.7 6.9 S 13.1 SSE 0.0 0.1
01:20 18.0 94.5 1024.6 8.2 S 14.8 S 0.0 0.1
01:25 17.9 94.5 1024.6 8.9 S 13.8 SSE 0.0 0.1
01:30 17.8 94.5 1024.7 8.4 S 13.8 S 0.0 0.1
01:35 17.8 94.7 1024.7 9.9 SSW 13.1 S 0.0 0.1
01:40 17.8 94.7 1024.8 10.8 SSW 14.1 SSW 0.0 0.1
01:45 17.8 94.8 1024.8 11.8 SSW 14.5 S 0.0 0.1
01:50 17.7 94.8 1024.8 10.1 SSW 13.8 SSW 0.0 0.1
01:55 17.7 94.8 1024.8 9.8 SSW 13.4 S 0.0 0.1
02:00 17.7 94.7 1024.7 6.3 S 12.4 S 0.0 0.1
02:05 17.6 94.6 1024.7 6.8 S 10.6 S 0.0 0.1
02:10 17.6 94.6 1024.7 6.2 S 8.8 S 0.0 0.1
02:15 17.5 94.6 1024.6 5.9 SSW 8.8 SSW 0.0 0.1
02:20 17.4 94.4 1024.6 6.3 SSW 8.1 SSW 0.0 0.1
02:25 17.3 94.3 1024.5 3.2 S 5.3 S 0.0 0.1
02:30 17.2 94.2 1024.4 2.7 SSW 4.9 SSW 0.0 0.1
Máxima 18.5 94.8 1024.9 11.8 SSW 15.2 SSW 0.0 0.1
Mínima 17.2 93.9 1024.4
Total 0.0